createdAt,value
2022-10-05T00:01:46.970Z,10.73
2022-10-05T00:04:25.660Z,10.80
2022-10-05T00:07:08.129Z,10.84
2022-10-05T00:09:34.782Z,10.86
2022-10-05T00:12:13.452Z,10.90
2022-10-05T00:14:40.094Z,10.93
2022-10-05T00:17:06.934Z,10.91
2022-10-05T00:19:36.322Z,10.91
2022-10-05T00:22:13.249Z,10.91
2022-10-05T00:24:40.193Z,10.89
2022-10-05T00:27:19.917Z,10.90
2022-10-05T00:29:49.049Z,10.90
2022-10-05T00:32:15.522Z,10.90
2022-10-05T00:34:42.775Z,10.88
2022-10-05T00:37:09.677Z,10.87
2022-10-05T00:39:38.253Z,10.87
2022-10-05T00:42:24.300Z,10.90
2022-10-05T00:45:06.011Z,10.89
2022-10-05T00:47:44.643Z,10.87
2022-10-05T00:50:29.777Z,10.88
2022-10-05T00:53:15.008Z,10.88
2022-10-05T00:56:04.932Z,10.86
2022-10-05T00:59:00.471Z,10.83
2022-10-05T01:01:29.725Z,10.84
2022-10-05T01:04:22.669Z,10.85
2022-10-05T01:07:04.599Z,10.84
2022-10-05T01:09:57.617Z,10.85
2022-10-05T01:12:26.702Z,10.84
2022-10-05T01:15:08.544Z,10.83
2022-10-05T01:17:37.689Z,10.82
2022-10-05T01:20:23.343Z,10.84
2022-10-05T01:23:07.586Z,10.86
2022-10-05T01:26:01.950Z,10.84
2022-10-05T01:28:35.377Z,10.83
2022-10-05T01:31:41.517Z,10.85
2022-10-05T01:34:43.625Z,10.81
2022-10-05T01:37:27.393Z,10.80
2022-10-05T01:40:11.232Z,10.74
2022-10-05T01:43:00.712Z,10.72
2022-10-05T01:45:51.389Z,10.67
2022-10-05T01:48:28.494Z,10.62
2022-10-05T01:50:57.995Z,10.55
2022-10-05T01:54:09.066Z,10.53
2022-10-05T01:57:01.407Z,10.49
2022-10-05T01:59:50.313Z,10.43
2022-10-05T02:02:20.327Z,10.34
2022-10-05T02:05:02.403Z,10.29
2022-10-05T02:07:39.826Z,10.28
2022-10-05T02:10:18.902Z,10.29
2022-10-05T02:12:48.097Z,10.32
2022-10-05T02:15:19.506Z,10.34
2022-10-05T02:17:50.363Z,10.37
2022-10-05T02:20:24.799Z,10.41
2022-10-05T02:22:54.539Z,10.41
2022-10-05T02:25:27.562Z,10.44
2022-10-05T02:28:01.098Z,10.45
2022-10-05T02:30:30.259Z,10.44
2022-10-05T02:33:03.014Z,10.44
2022-10-05T02:35:30.821Z,10.42
2022-10-05T02:38:09.230Z,10.41
2022-10-05T02:40:58.387Z,10.35
2022-10-05T02:43:38.936Z,10.30
2022-10-05T02:46:13.306Z,10.28
2022-10-05T02:49:01.229Z,10.29
2022-10-05T02:51:36.823Z,10.29
2022-10-05T02:54:23.546Z,10.30
2022-10-05T02:56:58.285Z,10.29
2022-10-05T02:59:47.688Z,10.24
2022-10-05T03:02:21.262Z,10.20
2022-10-05T03:04:59.473Z,10.16
2022-10-05T03:07:47.105Z,10.12
2022-10-05T03:10:25.145Z,10.09
2022-10-05T03:13:06.105Z,10.07
2022-10-05T03:15:51.949Z,10.07
2022-10-05T03:18:34.626Z,10.08
2022-10-05T03:21:08.078Z,10.08
2022-10-05T03:24:01.792Z,10.09
2022-10-05T03:27:00.629Z,10.10
2022-10-05T03:29:37.889Z,10.11
2022-10-05T03:32:30.079Z,10.08
2022-10-05T03:35:17.964Z,10.06
2022-10-05T03:37:53.640Z,10.03
2022-10-05T03:40:34.304Z,10.01
2022-10-05T03:43:42.606Z,10.01
2022-10-05T03:46:44.622Z,9.98
2022-10-05T03:49:30.077Z,9.96
2022-10-05T03:52:03.970Z,9.95
2022-10-05T03:54:38.430Z,9.93
2022-10-05T03:57:13.903Z,9.94
2022-10-05T03:59:54.444Z,9.94
2022-10-05T04:02:26.094Z,9.90
2022-10-05T04:05:12.391Z,9.84
2022-10-05T04:07:56.707Z,9.80
2022-10-05T04:10:39.565Z,9.77
2022-10-05T04:13:18.276Z,9.76
2022-10-05T04:15:54.059Z,9.72
2022-10-05T04:18:31.000Z,9.72
2022-10-05T04:21:04.266Z,9.72
2022-10-05T04:23:48.025Z,9.75
2022-10-05T04:26:21.753Z,9.76
2022-10-05T04:29:03.578Z,9.79
2022-10-05T04:31:51.973Z,9.83
2022-10-05T04:34:53.306Z,9.81
2022-10-05T04:37:46.616Z,9.86
2022-10-05T04:40:42.970Z,9.89
2022-10-05T04:43:32.919Z,9.85
2022-10-05T04:46:17.223Z,9.83
2022-10-05T04:49:02.576Z,9.82
2022-10-05T04:51:41.013Z,9.83
2022-10-05T04:54:28.677Z,9.81
2022-10-05T04:57:01.865Z,9.78
2022-10-05T04:59:59.698Z,9.77
2022-10-05T05:02:51.667Z,9.76
2022-10-05T05:05:23.327Z,9.75
2022-10-05T05:08:27.086Z,9.74
2022-10-05T05:11:06.559Z,9.73
2022-10-05T05:13:49.806Z,9.78
2022-10-05T05:16:35.716Z,9.82
2022-10-05T05:19:06.846Z,9.84
2022-10-05T05:22:04.260Z,9.87
2022-10-05T05:24:45.393Z,9.89
2022-10-05T05:27:46.684Z,9.90
2022-10-05T05:30:21.178Z,9.88
2022-10-05T05:33:18.013Z,9.85
2022-10-05T05:36:19.485Z,9.82
2022-10-05T05:39:20.944Z,9.77
2022-10-05T05:42:16.975Z,9.73
2022-10-05T05:44:57.792Z,9.74
2022-10-05T05:47:35.144Z,9.73
2022-10-05T05:50:30.290Z,9.78
2022-10-05T05:53:11.862Z,9.81
2022-10-05T05:55:44.755Z,9.79
2022-10-05T05:58:29.546Z,9.74
2022-10-05T06:01:01.988Z,9.65
2022-10-05T06:03:39.821Z,9.57
2022-10-05T06:06:15.721Z,9.43
2022-10-05T06:08:45.324Z,9.36
2022-10-05T06:11:41.100Z,9.28
2022-10-05T06:14:25.766Z,9.22
2022-10-05T06:17:00.285Z,9.21
2022-10-05T06:19:28.759Z,9.20
2022-10-05T06:22:14.839Z,9.18
2022-10-05T06:25:12.787Z,9.19
2022-10-05T06:28:03.470Z,9.16
2022-10-05T06:30:43.146Z,9.19
2022-10-05T06:33:28.105Z,9.22
2022-10-05T06:36:13.257Z,9.24
2022-10-05T06:39:13.830Z,9.29
2022-10-05T06:42:01.146Z,9.34
2022-10-05T06:44:53.547Z,9.41
2022-10-05T06:48:05.019Z,9.47
2022-10-05T06:51:23.310Z,9.56
2022-10-05T06:54:37.925Z,9.71
2022-10-05T06:57:08.812Z,9.80
2022-10-05T06:59:52.852Z,9.92
2022-10-05T07:02:38.117Z,10.08
2022-10-05T07:05:38.174Z,10.27
2022-10-05T07:08:12.168Z,10.46
2022-10-05T07:10:51.250Z,10.62
2022-10-05T07:13:42.505Z,10.81
2022-10-05T07:16:15.701Z,11.01
2022-10-05T07:19:00.012Z,11.19
2022-10-05T07:21:51.537Z,11.38
2022-10-05T07:24:30.712Z,11.55
2022-10-05T07:27:13.382Z,11.71
2022-10-05T07:29:52.637Z,11.92
2022-10-05T07:32:26.876Z,12.08
2022-10-05T07:35:57.286Z,12.27
2022-10-05T07:38:37.924Z,12.47
2022-10-05T07:41:09.105Z,12.62
2022-10-05T07:44:02.349Z,12.74
2022-10-05T07:47:09.716Z,12.93
2022-10-05T07:49:57.136Z,13.11
2022-10-05T07:52:38.558Z,13.28
2022-10-05T07:55:22.800Z,13.39
2022-10-05T07:58:05.525Z,13.54
2022-10-05T08:01:00.379Z,13.71
2022-10-05T08:03:54.010Z,13.85
2022-10-05T08:06:26.955Z,13.99
2022-10-05T08:09:07.166Z,14.15
2022-10-05T08:11:52.045Z,14.27
2022-10-05T08:14:33.756Z,14.35
2022-10-05T08:17:06.148Z,14.45
2022-10-05T08:19:42.909Z,14.57
2022-10-05T08:22:13.899Z,14.73
2022-10-05T08:24:52.250Z,14.87
2022-10-05T08:27:57.028Z,15.00
2022-10-05T08:30:24.042Z,15.11
2022-10-05T08:33:00.292Z,15.18
2022-10-05T08:35:40.921Z,15.28
2022-10-05T08:38:19.778Z,15.35
2022-10-05T08:41:15.288Z,15.46
2022-10-05T08:44:08.795Z,15.56
2022-10-05T08:47:00.446Z,15.62
2022-10-05T08:50:07.990Z,15.71
2022-10-05T08:53:01.178Z,15.87
2022-10-05T08:55:51.634Z,16.05
2022-10-05T08:58:51.423Z,16.12
2022-10-05T09:01:34.275Z,16.23
2022-10-05T09:04:22.130Z,16.34
2022-10-05T09:07:06.579Z,16.43
2022-10-05T09:09:58.298Z,16.53
2022-10-05T09:12:52.111Z,16.66
2022-10-05T09:15:48.207Z,16.80
2022-10-05T09:18:39.335Z,16.90
2022-10-05T09:21:39.025Z,17.01
2022-10-05T09:24:22.978Z,17.20
2022-10-05T09:27:03.634Z,17.29
2022-10-05T09:29:49.892Z,17.38
2022-10-05T09:32:43.198Z,17.44
2022-10-05T09:35:37.960Z,17.49
2022-10-05T09:38:19.997Z,17.60
2022-10-05T09:41:04.534Z,17.75
2022-10-05T09:44:08.500Z,17.79
2022-10-05T09:47:06.665Z,17.79
2022-10-05T09:49:45.146Z,17.79
2022-10-05T09:52:45.762Z,17.85
2022-10-05T09:55:33.570Z,17.92
2022-10-05T09:58:44.795Z,17.94
2022-10-05T10:02:00.225Z,17.98
2022-10-05T10:04:48.189Z,18.10
2022-10-05T10:07:35.869Z,18.28
2022-10-05T10:10:39.525Z,18.42
2022-10-05T10:13:24.890Z,18.50
2022-10-05T10:16:25.966Z,18.69
2022-10-05T10:18:58.266Z,18.80
2022-10-05T10:21:24.631Z,18.95
2022-10-05T10:24:00.064Z,19.05
2022-10-05T10:26:42.490Z,19.16
2022-10-05T10:29:33.580Z,19.23
2022-10-05T10:32:26.496Z,19.39
2022-10-05T10:35:11.682Z,19.57
2022-10-05T10:38:06.006Z,19.75
2022-10-05T10:40:46.429Z,19.86
2022-10-05T10:43:30.878Z,20.02
2022-10-05T10:46:22.480Z,20.18
2022-10-05T10:48:53.341Z,20.34
2022-10-05T10:51:56.700Z,20.47
2022-10-05T10:54:58.744Z,20.60
2022-10-05T10:57:30.147Z,20.76
2022-10-05T11:00:30.192Z,20.87
2022-10-05T11:03:17.971Z,21.04
2022-10-05T11:05:58.866Z,21.14
2022-10-05T11:08:40.874Z,21.35
2022-10-05T11:11:41.190Z,21.55
2022-10-05T11:14:16.577Z,21.61
2022-10-05T11:17:08.899Z,21.73
2022-10-05T11:20:17.209Z,21.85
2022-10-05T11:22:59.029Z,21.99
2022-10-05T11:26:03.897Z,22.18
2022-10-05T11:29:00.234Z,22.38
2022-10-05T11:31:37.839Z,22.48
2022-10-05T11:34:30.817Z,22.57
2022-10-05T11:37:16.041Z,22.71
2022-10-05T11:40:12.918Z,22.78
2022-10-05T11:43:00.055Z,22.73
2022-10-05T11:45:41.256Z,22.80
2022-10-05T11:48:22.676Z,23.02
2022-10-05T11:51:28.454Z,23.18
2022-10-05T11:53:57.440Z,23.29
2022-10-05T11:56:39.596Z,23.24
2022-10-05T11:59:18.885Z,23.28
2022-10-05T12:02:04.171Z,23.40
2022-10-05T12:04:51.653Z,23.35
2022-10-05T12:07:30.962Z,23.28
2022-10-05T12:10:21.042Z,23.43
2022-10-05T12:12:57.196Z,23.66
2022-10-05T12:15:23.893Z,23.59
2022-10-05T12:17:59.086Z,23.34
2022-10-05T12:20:39.160Z,23.33
2022-10-05T12:23:25.846Z,23.37
2022-10-05T12:26:16.218Z,23.64
2022-10-05T12:28:51.281Z,23.56
2022-10-05T12:31:45.386Z,23.47
2022-10-05T12:34:40.034Z,23.49
2022-10-05T12:37:43.094Z,23.53
2022-10-05T12:40:25.185Z,23.64
2022-10-05T12:43:27.965Z,23.72
2022-10-05T12:46:03.357Z,23.73
2022-10-05T12:48:38.804Z,23.67
2022-10-05T12:51:25.967Z,23.50
2022-10-05T12:54:10.133Z,23.41
2022-10-05T12:56:52.310Z,23.48
2022-10-05T12:59:34.991Z,23.66
2022-10-05T13:02:20.273Z,23.88
2022-10-05T13:05:08.644Z,23.98
2022-10-05T13:07:53.782Z,24.01
2022-10-05T13:10:33.355Z,24.00
2022-10-05T13:13:20.563Z,24.01
2022-10-05T13:15:53.123Z,24.17
2022-10-05T13:18:34.386Z,24.26
2022-10-05T13:21:15.190Z,24.31
2022-10-05T13:24:06.857Z,24.31
2022-10-05T13:26:37.383Z,24.25
2022-10-05T13:29:23.704Z,24.19
2022-10-05T13:31:56.172Z,24.18
2022-10-05T13:34:46.949Z,24.04
2022-10-05T13:37:28.537Z,23.94
2022-10-05T13:40:21.699Z,23.99
2022-10-05T13:43:01.844Z,24.06
2022-10-05T13:45:37.322Z,24.15
2022-10-05T13:48:41.331Z,24.26
2022-10-05T13:51:18.981Z,24.21
2022-10-05T13:53:52.735Z,24.26
2022-10-05T13:56:25.913Z,24.34
2022-10-05T13:58:59.572Z,24.46
2022-10-05T14:01:52.506Z,24.41
2022-10-05T14:04:24.461Z,24.42
2022-10-05T14:06:54.327Z,24.47
2022-10-05T14:09:20.693Z,24.35
2022-10-05T14:12:14.320Z,24.31
2022-10-05T14:14:49.200Z,24.39
2022-10-05T14:17:29.169Z,24.52
2022-10-05T14:20:02.706Z,24.72
2022-10-05T14:22:29.409Z,24.85
2022-10-05T14:25:02.825Z,24.92
2022-10-05T14:27:32.878Z,25.12
2022-10-05T14:30:00.371Z,25.32
2022-10-05T14:32:32.409Z,25.30
2022-10-05T14:35:13.694Z,25.22
2022-10-05T14:37:49.267Z,25.20
2022-10-05T14:40:35.169Z,25.20
2022-10-05T14:43:19.217Z,25.38
2022-10-05T14:45:59.349Z,25.67
2022-10-05T14:48:28.582Z,25.89
2022-10-05T14:51:04.114Z,25.96
2022-10-05T14:54:01.187Z,26.13
2022-10-05T14:56:32.160Z,26.37
2022-10-05T14:59:29.178Z,26.78
2022-10-05T15:02:26.685Z,28.00
2022-10-05T15:05:08.770Z,30.33
2022-10-05T15:07:42.617Z,32.31
2022-10-05T15:10:29.446Z,33.36
2022-10-05T15:13:10.645Z,34.53
2022-10-05T15:15:46.806Z,36.41
2022-10-05T15:18:27.251Z,37.71
2022-10-05T15:21:15.471Z,38.13
2022-10-05T15:23:49.529Z,36.95
2022-10-05T15:26:36.047Z,35.39
2022-10-05T15:29:09.674Z,34.81
2022-10-05T15:31:42.757Z,33.19
2022-10-05T15:34:49.819Z,32.13
2022-10-05T15:37:25.689Z,31.59
2022-10-05T15:39:56.095Z,30.71
2022-10-05T15:42:34.376Z,29.64
2022-10-05T15:45:10.671Z,28.81
2022-10-05T15:47:56.086Z,28.48
2022-10-05T15:50:26.893Z,28.65
2022-10-05T15:53:03.637Z,28.65
2022-10-05T15:55:39.207Z,28.46
2022-10-05T15:58:44.605Z,29.70
2022-10-05T16:01:32.213Z,30.66
2022-10-05T16:04:20.265Z,31.08
2022-10-05T16:07:16.966Z,30.23
2022-10-05T16:09:57.724Z,28.44
2022-10-05T16:12:29.406Z,27.39
2022-10-05T16:15:21.675Z,26.45
2022-10-05T16:18:03.049Z,25.58
2022-10-05T16:20:48.225Z,25.33
2022-10-05T16:23:31.512Z,25.40
2022-10-05T16:26:11.499Z,25.53
2022-10-05T16:29:02.560Z,25.75
2022-10-05T16:31:43.875Z,26.16
2022-10-05T16:34:39.202Z,26.18
2022-10-05T16:37:18.729Z,25.33
2022-10-05T16:40:18.929Z,24.34
2022-10-05T16:42:48.052Z,23.50
2022-10-05T16:45:26.155Z,22.84
2022-10-05T16:48:10.960Z,22.29
2022-10-05T16:51:07.544Z,21.69
2022-10-05T16:53:40.736Z,21.26
2022-10-05T16:56:12.706Z,20.89
2022-10-05T16:59:06.916Z,20.58
2022-10-05T17:01:52.865Z,20.29
2022-10-05T17:04:26.682Z,20.03
2022-10-05T17:07:14.799Z,19.81
2022-10-05T17:10:07.072Z,19.61
2022-10-05T17:13:28.509Z,19.39
2022-10-05T17:16:10.771Z,19.18
2022-10-05T17:19:19.122Z,18.98
2022-10-05T17:21:56.025Z,18.79
2022-10-05T17:24:47.337Z,18.65
2022-10-05T17:27:26.190Z,18.51
2022-10-05T17:29:55.050Z,18.39
2022-10-05T17:32:35.513Z,18.28
2022-10-05T17:35:42.292Z,18.20
2022-10-05T17:38:40.502Z,18.09
2022-10-05T17:41:09.653Z,18.02
2022-10-05T17:43:36.684Z,17.95
2022-10-05T17:46:09.560Z,17.89
2022-10-05T17:48:44.111Z,17.80
2022-10-05T17:51:36.894Z,17.75
2022-10-05T17:54:43.427Z,17.67
2022-10-05T17:57:09.783Z,17.60
2022-10-05T18:00:01.926Z,17.54
2022-10-05T18:02:38.368Z,17.47
2022-10-05T18:05:17.613Z,17.40
2022-10-05T18:07:49.957Z,17.36
2022-10-05T18:10:28.704Z,17.31
2022-10-05T18:13:01.100Z,17.28
2022-10-05T18:15:27.425Z,17.25
2022-10-05T18:18:00.838Z,17.24
2022-10-05T18:20:31.895Z,17.21
2022-10-05T18:23:09.173Z,17.18
2022-10-05T18:25:51.966Z,17.15
2022-10-05T18:28:45.394Z,17.09
2022-10-05T18:31:32.953Z,17.05
2022-10-05T18:34:17.609Z,17.01
2022-10-05T18:37:07.152Z,16.98
2022-10-05T18:39:57.935Z,16.94
2022-10-05T18:42:51.594Z,16.87
2022-10-05T18:45:46.338Z,16.83
2022-10-05T18:48:31.626Z,16.76
2022-10-05T18:51:19.129Z,16.75
2022-10-05T18:54:01.174Z,16.68
2022-10-05T18:56:58.462Z,16.66
2022-10-05T18:59:48.375Z,16.65
2022-10-05T19:02:24.085Z,16.61
2022-10-05T19:05:29.261Z,16.55
2022-10-05T19:08:16.726Z,16.49
2022-10-05T19:11:22.952Z,16.45
2022-10-05T19:14:10.461Z,16.41
2022-10-05T19:17:07.748Z,16.35
2022-10-05T19:20:04.902Z,16.34
2022-10-05T19:23:03.272Z,16.31
2022-10-05T19:25:48.225Z,16.29
2022-10-05T19:28:35.182Z,16.27
2022-10-05T19:31:36.963Z,16.27
2022-10-05T19:34:22.151Z,16.25
2022-10-05T19:37:03.689Z,16.24
2022-10-05T19:39:42.286Z,16.20
2022-10-05T19:42:24.634Z,16.18
2022-10-05T19:45:09.175Z,16.16
2022-10-05T19:47:41.486Z,16.15
2022-10-05T19:50:26.979Z,16.09
2022-10-05T19:53:04.100Z,16.11
2022-10-05T19:55:39.462Z,16.10
2022-10-05T19:58:18.167Z,16.10
2022-10-05T20:00:53.095Z,16.09
2022-10-05T20:03:26.384Z,16.06
2022-10-05T20:05:54.659Z,16.05
2022-10-05T20:08:25.243Z,16.06
2022-10-05T20:11:14.141Z,16.07
2022-10-05T20:13:43.104Z,16.05
2022-10-05T20:16:36.147Z,16.05
2022-10-05T20:19:40.848Z,16.00
2022-10-05T20:22:34.384Z,15.90
2022-10-05T20:25:04.228Z,15.90
2022-10-05T20:27:39.469Z,15.90
2022-10-05T20:30:06.996Z,15.92
2022-10-05T20:32:33.871Z,15.89
2022-10-05T20:35:00.375Z,15.94
2022-10-05T20:37:26.762Z,15.86
2022-10-05T20:39:53.148Z,15.95
2022-10-05T20:42:20.984Z,15.92
2022-10-05T20:44:50.774Z,15.89
2022-10-05T20:47:19.425Z,15.84
2022-10-05T20:49:45.800Z,15.81
2022-10-05T20:52:14.944Z,15.73
2022-10-05T20:54:41.827Z,15.65
2022-10-05T20:57:09.092Z,15.58
2022-10-05T20:59:36.369Z,15.53
2022-10-05T21:02:03.703Z,15.51
2022-10-05T21:04:41.430Z,15.48
2022-10-05T21:07:08.850Z,15.46
2022-10-05T21:09:38.157Z,15.44
2022-10-05T21:12:04.762Z,15.45
2022-10-05T21:14:34.342Z,15.43
2022-10-05T21:17:01.914Z,15.43
2022-10-05T21:19:29.344Z,15.40
2022-10-05T21:21:58.316Z,15.38
2022-10-05T21:24:25.098Z,15.38
2022-10-05T21:26:51.536Z,15.38
2022-10-05T21:29:17.942Z,15.36
2022-10-05T21:31:44.396Z,15.38
2022-10-05T21:34:10.908Z,15.38
2022-10-05T21:36:37.292Z,15.35
2022-10-05T21:39:03.977Z,15.27
2022-10-05T21:41:30.394Z,15.31
2022-10-05T21:43:56.793Z,15.35
2022-10-05T21:46:26.475Z,15.34
2022-10-05T21:48:54.256Z,15.31
2022-10-05T21:51:24.899Z,15.34
2022-10-05T21:53:56.687Z,15.29
2022-10-05T21:56:28.102Z,15.28
2022-10-05T21:58:54.744Z,15.25
2022-10-05T22:01:22.893Z,15.23
2022-10-05T22:03:49.741Z,15.21
2022-10-05T22:06:16.135Z,15.17
2022-10-05T22:08:42.518Z,15.12
2022-10-05T22:11:14.784Z,15.06
2022-10-05T22:13:45.187Z,15.06
2022-10-05T22:16:12.983Z,15.02
2022-10-05T22:18:40.100Z,14.99
2022-10-05T22:21:09.873Z,14.98
2022-10-05T22:23:36.225Z,14.98
2022-10-05T22:26:03.922Z,14.99
2022-10-05T22:28:32.420Z,14.97
2022-10-05T22:31:03.096Z,15.04
2022-10-05T22:33:29.703Z,15.03
2022-10-05T22:35:58.979Z,15.06
2022-10-05T22:38:26.085Z,15.04
2022-10-05T22:40:52.856Z,15.03
2022-10-05T22:43:19.493Z,15.02
2022-10-05T22:45:46.001Z,15.00
2022-10-05T22:48:12.588Z,14.98
2022-10-05T22:50:38.955Z,14.95
2022-10-05T22:53:05.356Z,14.88
2022-10-05T22:55:31.726Z,14.80
2022-10-05T22:57:58.079Z,14.69
2022-10-05T23:00:35.249Z,14.60
2022-10-05T23:03:10.894Z,14.48
2022-10-05T23:05:37.777Z,14.40
2022-10-05T23:08:04.208Z,14.32
2022-10-05T23:10:32.073Z,14.25
2022-10-05T23:13:01.055Z,14.17
2022-10-05T23:15:27.663Z,14.08
2022-10-05T23:17:56.020Z,14.02
2022-10-05T23:20:24.088Z,13.95
2022-10-05T23:22:50.452Z,13.88
2022-10-05T23:25:17.788Z,13.82
2022-10-05T23:27:44.294Z,13.77
2022-10-05T23:30:12.264Z,13.73
2022-10-05T23:32:40.720Z,13.69
2022-10-05T23:35:09.377Z,13.66
2022-10-05T23:37:44.175Z,13.59
2022-10-05T23:40:14.124Z,13.52
2022-10-05T23:42:41.044Z,13.47
2022-10-05T23:45:09.296Z,13.43
2022-10-05T23:47:35.788Z,13.43
2022-10-05T23:50:02.499Z,13.45
2022-10-05T23:52:28.881Z,13.48
2022-10-05T23:54:55.302Z,13.51
2022-10-05T23:57:21.732Z,13.51
2022-10-05T23:59:50.168Z,13.51
